createdAt,value
2018-12-06T05:00:35.728Z,0.00
2018-12-06T05:01:35.558Z,0.00
2018-12-06T05:02:35.633Z,0.00
2018-12-06T05:03:35.456Z,0.00
2018-12-06T05:04:35.446Z,0.00
2018-12-06T05:05:35.429Z,0.00
2018-12-06T05:06:35.436Z,0.00
2018-12-06T05:07:35.425Z,0.00
2018-12-06T05:08:35.401Z,0.00
2018-12-06T05:09:35.407Z,0.00
2018-12-06T05:10:35.378Z,0.00
2018-12-06T05:11:35.367Z,0.00
2018-12-06T05:12:35.376Z,0.00
2018-12-06T05:13:35.342Z,0.00
2018-12-06T05:14:35.382Z,0.00
2018-12-06T05:15:35.368Z,0.00
2018-12-06T05:16:35.350Z,0.00
2018-12-06T05:17:35.329Z,0.00
2018-12-06T05:18:35.289Z,0.00
2018-12-06T05:19:35.275Z,0.00
2018-12-06T05:20:35.264Z,0.00
2018-12-06T05:21:35.252Z,0.00
2018-12-06T05:22:35.253Z,0.00
2018-12-06T05:23:35.229Z,0.00
2018-12-06T05:24:35.219Z,0.00
2018-12-06T05:25:35.236Z,0.00
2018-12-06T05:26:35.197Z,0.00
2018-12-06T05:27:35.259Z,0.00
2018-12-06T05:28:35.177Z,0.00
2018-12-06T05:29:35.163Z,0.00
2018-12-06T05:30:35.156Z,0.00
2018-12-06T05:31:35.163Z,0.00
2018-12-06T05:32:35.144Z,0.00
2018-12-06T05:33:35.116Z,0.00
2018-12-06T05:34:35.105Z,0.00
2018-12-06T05:35:35.099Z,0.00
2018-12-06T05:36:35.082Z,0.00
2018-12-06T05:37:35.087Z,0.00
2018-12-06T05:38:35.140Z,0.00
2018-12-06T05:39:35.059Z,0.00
2018-12-06T05:40:35.033Z,0.00
2018-12-06T05:41:35.030Z,0.00
2018-12-06T05:42:35.014Z,0.00
2018-12-06T05:43:35.027Z,0.00
2018-12-06T05:44:34.991Z,0.00
2018-12-06T05:45:34.980Z,0.00
2018-12-06T05:46:34.968Z,0.00
2018-12-06T05:47:34.959Z,0.00
2018-12-06T05:48:34.958Z,0.00
2018-12-06T05:49:34.934Z,0.00
2018-12-06T05:50:34.922Z,0.00
2018-12-06T05:51:34.913Z,0.00
2018-12-06T05:52:34.900Z,0.00
2018-12-06T05:53:34.908Z,0.00
2018-12-06T05:54:34.873Z,0.00
2018-12-06T05:55:34.870Z,0.00
2018-12-06T05:56:34.855Z,0.00
2018-12-06T05:57:34.859Z,0.00
2018-12-06T05:58:34.859Z,0.00
2018-12-06T05:59:34.829Z,0.00
2018-12-06T06:00:34.811Z,0.00
2018-12-06T06:01:34.802Z,0.00
2018-12-06T06:02:34.787Z,0.00
2018-12-06T06:03:34.790Z,0.00
2018-12-06T06:04:34.771Z,0.00
2018-12-06T06:05:34.753Z,0.00
2018-12-06T06:06:34.743Z,0.00
2018-12-06T06:07:34.727Z,0.00
2018-12-06T06:08:34.734Z,0.00
2018-12-06T06:09:34.703Z,0.00
2018-12-06T06:10:34.694Z,0.00
2018-12-06T06:11:34.682Z,0.00
2018-12-06T06:12:34.669Z,0.00
2018-12-06T06:13:34.674Z,0.00
2018-12-06T06:14:34.647Z,0.00
2018-12-06T06:15:34.635Z,0.00
2018-12-06T06:16:34.624Z,0.00
2018-12-06T06:17:34.612Z,0.00
2018-12-06T06:18:34.618Z,0.00
2018-12-06T06:19:34.589Z,0.00
2018-12-06T06:20:34.578Z,0.00
2018-12-06T06:21:34.644Z,0.00
2018-12-06T06:22:34.555Z,0.00
2018-12-06T06:23:34.562Z,0.00
2018-12-06T06:24:34.533Z,0.00
2018-12-06T06:25:34.522Z,0.00
2018-12-06T06:26:34.513Z,0.00
2018-12-06T06:27:34.500Z,0.00
2018-12-06T06:28:34.505Z,0.00
2018-12-06T06:29:34.479Z,0.00
2018-12-06T06:30:34.465Z,0.00
2018-12-06T06:31:34.454Z,0.00
2018-12-06T06:32:34.443Z,0.00
2018-12-06T06:33:34.444Z,0.00
2018-12-06T06:34:34.422Z,0.00
2018-12-06T06:35:34.414Z,0.00
2018-12-06T06:36:34.397Z,0.00
2018-12-06T06:37:34.385Z,0.00
2018-12-06T06:38:34.387Z,0.00
2018-12-06T06:39:34.364Z,0.00
2018-12-06T06:40:34.353Z,0.00
2018-12-06T06:41:34.362Z,0.00
2018-12-06T06:42:34.330Z,0.00
2018-12-06T06:43:34.329Z,0.00
2018-12-06T06:44:34.306Z,0.00
2018-12-06T06:45:34.300Z,0.00
2018-12-06T06:46:34.284Z,0.00
2018-12-06T06:47:34.273Z,0.00
2018-12-06T06:48:34.285Z,0.00
2018-12-06T06:49:34.249Z,0.00
2018-12-06T06:50:34.235Z,0.00
2018-12-06T06:51:34.228Z,0.00
2018-12-06T06:52:34.216Z,0.00
2018-12-06T06:53:34.222Z,0.00
2018-12-06T06:54:34.185Z,0.00
2018-12-06T06:55:34.182Z,0.00
2018-12-06T06:56:34.175Z,0.00
2018-12-06T06:57:34.162Z,0.00
2018-12-06T06:58:34.164Z,0.00
2018-12-06T06:59:34.137Z,0.00
2018-12-06T07:00:34.129Z,0.00
2018-12-06T07:01:34.115Z,0.00
2018-12-06T07:02:34.108Z,0.00
2018-12-06T07:03:34.117Z,0.00
2018-12-06T07:04:34.080Z,5.62
2018-12-06T07:05:34.069Z,5.62
2018-12-06T07:06:34.058Z,5.62
2018-12-06T07:07:34.048Z,5.62
2018-12-06T07:08:34.047Z,5.62
2018-12-06T07:09:34.023Z,5.62
2018-12-06T07:10:34.014Z,5.62
2018-12-06T07:11:34.002Z,5.62
2018-12-06T07:12:33.990Z,5.62
2018-12-06T07:13:33.998Z,5.62
2018-12-06T07:14:33.975Z,5.62
2018-12-06T07:15:33.962Z,5.62
2018-12-06T07:16:33.945Z,5.62
2018-12-06T07:17:33.933Z,5.62
2018-12-06T07:18:33.935Z,11.25
2018-12-06T07:19:33.909Z,11.25
2018-12-06T07:20:33.899Z,11.25
2018-12-06T07:21:33.880Z,11.25
2018-12-06T07:22:33.883Z,11.25
2018-12-06T07:23:33.879Z,11.25
2018-12-06T07:24:33.850Z,11.25
2018-12-06T07:25:33.839Z,11.25
2018-12-06T07:26:33.846Z,11.25
2018-12-06T07:27:33.818Z,11.25
2018-12-06T07:28:33.822Z,11.25
2018-12-06T07:29:33.795Z,11.25
2018-12-06T07:30:33.783Z,11.25
2018-12-06T07:31:33.774Z,16.88
2018-12-06T07:32:33.761Z,16.88
2018-12-06T07:33:33.761Z,16.88
2018-12-06T07:34:33.739Z,16.88
2018-12-06T07:35:33.726Z,16.88
2018-12-06T07:36:33.720Z,16.88
2018-12-06T07:37:33.707Z,16.88
2018-12-06T07:38:33.708Z,16.88
2018-12-06T07:39:33.676Z,16.88
2018-12-06T07:40:33.671Z,16.88
2018-12-06T07:41:33.658Z,16.88
2018-12-06T07:42:33.647Z,16.88
2018-12-06T07:43:33.635Z,16.88
2018-12-06T07:44:33.639Z,16.88
2018-12-06T07:45:33.613Z,22.50
2018-12-06T07:46:33.600Z,22.50
2018-12-06T07:47:33.589Z,22.50
2018-12-06T07:48:33.582Z,22.50
2018-12-06T07:49:33.595Z,22.50
2018-12-06T07:50:33.556Z,28.12
2018-12-06T07:51:33.548Z,28.12
2018-12-06T07:52:33.536Z,28.12
2018-12-06T07:53:33.523Z,28.12
2018-12-06T07:54:33.528Z,28.12
2018-12-06T07:55:33.505Z,33.75
2018-12-06T07:56:33.488Z,33.75
2018-12-06T07:57:33.478Z,33.75
2018-12-06T07:58:33.464Z,33.75
2018-12-06T07:59:33.465Z,39.38
2018-12-06T08:00:33.443Z,45.00
2018-12-06T08:01:33.431Z,56.25
2018-12-06T08:02:33.420Z,56.25
2018-12-06T08:03:33.410Z,56.25
2018-12-06T08:04:33.412Z,50.62
2018-12-06T08:05:33.390Z,45.00
2018-12-06T08:06:33.375Z,39.38
2018-12-06T08:07:33.363Z,39.38
2018-12-06T08:08:33.352Z,45.00
2018-12-06T08:09:33.356Z,50.62
2018-12-06T08:10:33.362Z,61.88
2018-12-06T08:11:35.302Z,67.50
2018-12-06T08:12:33.312Z,67.50
2018-12-06T08:13:33.297Z,67.50
2018-12-06T08:14:33.291Z,67.50
2018-12-06T08:15:33.273Z,67.50
2018-12-06T08:16:33.261Z,67.50
2018-12-06T08:17:33.250Z,50.62
2018-12-06T08:18:33.239Z,45.00
2018-12-06T08:19:33.244Z,50.62
2018-12-06T08:20:33.224Z,50.62
2018-12-06T08:23:33.633Z,50.62
2018-12-06T08:23:45.507Z,45.00
2018-12-06T08:24:44.717Z,45.00
2018-12-06T08:25:43.675Z,45.00
2018-12-06T08:27:53.595Z,45.00
2018-12-06T08:28:53.575Z,45.00
2018-12-06T08:29:53.574Z,45.00
2018-12-06T08:30:53.555Z,50.62
2018-12-06T08:31:53.542Z,56.25
2018-12-06T08:32:53.534Z,56.25
2018-12-06T08:33:53.517Z,61.88
2018-12-06T08:34:53.523Z,67.50
2018-12-06T08:35:53.494Z,67.50
2018-12-06T08:36:53.485Z,73.12
2018-12-06T08:37:53.472Z,78.75
2018-12-06T08:38:53.462Z,84.38
2018-12-06T08:39:53.466Z,73.12
2018-12-06T08:40:53.440Z,90.00
2018-12-06T08:41:53.426Z,73.12
2018-12-06T08:42:53.417Z,84.38
2018-12-06T08:43:53.404Z,84.38
2018-12-06T08:44:53.409Z,84.38
2018-12-06T08:45:53.381Z,84.38
2018-12-06T08:46:53.374Z,90.00
2018-12-06T08:47:53.359Z,123.75
2018-12-06T08:48:53.349Z,67.50
2018-12-06T08:49:53.352Z,56.25
2018-12-06T08:50:53.325Z,45.00
2018-12-06T08:51:53.313Z,45.00
2018-12-06T08:52:53.301Z,50.62
2018-12-06T08:53:53.291Z,45.00
2018-12-06T08:54:53.303Z,61.88
2018-12-06T08:55:53.268Z,67.50
2018-12-06T08:56:53.257Z,73.12
2018-12-06T08:57:53.248Z,61.88
2018-12-06T08:58:53.235Z,50.62
2018-12-06T08:59:53.240Z,39.38
2018-12-06T09:00:53.217Z,28.12
2018-12-06T09:01:53.199Z,39.38
2018-12-06T09:02:53.189Z,45.00
2018-12-06T09:03:53.169Z,50.62
2018-12-06T09:04:53.179Z,50.62
2018-12-06T09:05:53.168Z,45.00
2018-12-06T09:06:53.150Z,45.00
2018-12-06T09:07:53.142Z,39.38
2018-12-06T09:08:53.121Z,33.75
2018-12-06T09:09:53.122Z,39.38
2018-12-06T09:10:53.101Z,50.62
2018-12-06T09:11:53.088Z,50.62
2018-12-06T09:12:53.065Z,56.25
2018-12-06T09:13:53.067Z,61.88
2018-12-06T09:14:53.073Z,78.75
2018-12-06T09:15:53.044Z,56.25
2018-12-06T09:16:53.032Z,67.50
2018-12-06T09:17:53.020Z,67.50
2018-12-06T09:18:55.062Z,45.00
2018-12-06T09:19:53.011Z,45.00
2018-12-06T09:20:52.987Z,50.62
2018-12-06T09:21:52.975Z,45.00
2018-12-06T09:22:52.963Z,39.38
2018-12-06T09:23:52.952Z,45.00
2018-12-06T09:24:52.954Z,50.62
2018-12-06T09:25:52.928Z,61.88
2018-12-06T09:26:58.714Z,56.25
2018-12-06T09:27:53.905Z,84.38
2018-12-06T09:28:52.894Z,84.38
2018-12-06T09:29:52.898Z,73.12
2018-12-06T09:30:52.868Z,101.25
2018-12-06T09:31:52.906Z,101.25
2018-12-06T09:32:52.851Z,95.62
2018-12-06T09:33:52.847Z,90.00
2018-12-06T09:34:52.845Z,106.88
2018-12-06T09:35:52.815Z,123.75
2018-12-06T09:36:52.804Z,129.38
2018-12-06T09:37:52.794Z,118.12
2018-12-06T09:38:52.777Z,123.75
2018-12-06T09:39:52.786Z,123.75
2018-12-06T09:40:52.755Z,106.88
2018-12-06T09:41:52.744Z,129.38
2018-12-06T09:42:52.736Z,101.25
2018-12-06T09:43:52.726Z,112.50
2018-12-06T09:44:52.728Z,118.12
2018-12-06T09:45:52.698Z,146.25
2018-12-06T09:46:52.691Z,140.62
2018-12-06T09:47:52.681Z,129.38
2018-12-06T09:48:52.664Z,140.62
2018-12-06T09:49:52.670Z,140.62
2018-12-06T09:50:52.655Z,123.75
2018-12-06T09:51:52.633Z,146.25
2018-12-06T09:52:52.620Z,157.50
2018-12-06T09:53:52.607Z,146.25
2018-12-06T09:54:52.613Z,185.62
2018-12-06T09:55:52.585Z,180.00
2018-12-06T09:56:52.726Z,174.38
2018-12-06T09:57:52.569Z,168.75
2018-12-06T09:58:52.556Z,168.75
2018-12-06T09:59:52.558Z,151.88
2018-12-06T10:00:52.528Z,140.62
2018-12-06T10:01:52.518Z,135.00
2018-12-06T10:02:52.509Z,123.75
2018-12-06T10:03:52.496Z,95.62
2018-12-06T10:04:52.496Z,95.62
2018-12-06T10:05:54.543Z,90.00
2018-12-06T10:06:52.463Z,90.00
2018-12-06T10:07:52.546Z,78.75
2018-12-06T10:08:52.446Z,84.38
2018-12-06T10:09:52.445Z,78.75
2018-12-06T10:10:52.419Z,78.75
2018-12-06T10:11:52.407Z,78.75
2018-12-06T10:12:52.395Z,78.75
2018-12-06T10:13:54.394Z,73.12
2018-12-06T10:14:52.387Z,67.50
2018-12-06T10:15:52.363Z,56.25
2018-12-06T10:16:52.348Z,50.62
2018-12-06T10:17:52.340Z,45.00
2018-12-06T10:18:52.545Z,39.38
2018-12-06T10:19:52.335Z,33.75
2018-12-06T10:20:52.303Z,33.75
2018-12-06T10:21:52.292Z,28.12
2018-12-06T10:22:52.282Z,22.50
2018-12-06T10:23:52.270Z,28.12
2018-12-06T10:24:52.274Z,33.75
2018-12-06T10:25:52.247Z,33.75
2018-12-06T10:26:52.237Z,39.38
2018-12-06T10:27:52.224Z,33.75
2018-12-06T10:28:52.214Z,33.75
2018-12-06T10:29:52.234Z,33.75
2018-12-06T10:30:52.190Z,28.12
2018-12-06T10:31:52.183Z,28.12
2018-12-06T10:32:52.168Z,28.12
2018-12-06T10:33:52.156Z,28.12
2018-12-06T10:34:53.516Z,33.75
2018-12-06T10:35:52.147Z,33.75
2018-12-06T10:36:52.124Z,39.38
2018-12-06T10:37:52.112Z,39.38
2018-12-06T10:38:54.169Z,39.38
2018-12-06T10:39:52.086Z,39.38
2018-12-06T10:40:52.093Z,45.00
2018-12-06T10:41:52.066Z,45.00
2018-12-06T10:42:53.060Z,39.38
2018-12-06T10:43:52.048Z,50.62
2018-12-06T10:44:52.032Z,50.62
2018-12-06T10:45:52.037Z,56.25
2018-12-06T10:46:54.228Z,61.88
2018-12-06T10:47:52.000Z,56.25
2018-12-06T10:48:51.988Z,61.88
2018-12-06T10:49:51.977Z,45.00
2018-12-06T10:50:51.982Z,50.62
2018-12-06T10:51:51.950Z,45.00
2018-12-06T10:52:51.947Z,45.00
2018-12-06T10:53:51.934Z,45.00
2018-12-06T10:54:51.920Z,33.75
2018-12-06T10:55:51.942Z,39.38
2018-12-06T10:56:51.911Z,39.38
2018-12-06T10:57:51.897Z,33.75
2018-12-06T10:58:51.882Z,33.75
2018-12-06T10:59:51.867Z,33.75
2018-12-06T11:00:57.205Z,33.75
2018-12-06T11:01:52.852Z,33.75
2018-12-06T11:02:51.835Z,28.12
2018-12-06T11:03:51.822Z,28.12
2018-12-06T11:04:51.814Z,28.12
2018-12-06T11:05:51.827Z,33.75
2018-12-06T11:06:51.804Z,33.75
2018-12-06T11:07:51.781Z,33.75
2018-12-06T11:08:51.772Z,33.75
2018-12-06T11:09:51.763Z,39.38
2018-12-06T11:10:51.792Z,39.38
2018-12-06T11:11:51.743Z,39.38
2018-12-06T11:12:51.721Z,39.38
2018-12-06T11:13:51.715Z,39.38
2018-12-06T11:14:51.702Z,39.38
2018-12-06T11:15:51.736Z,45.00
2018-12-06T11:16:51.679Z,39.38
2018-12-06T11:17:51.703Z,39.38
2018-12-06T11:18:51.664Z,45.00
2018-12-06T11:19:51.645Z,39.38
2018-12-06T11:20:51.666Z,39.38
2018-12-06T11:21:51.626Z,39.38
2018-12-06T11:22:51.617Z,39.38
2018-12-06T11:23:51.602Z,45.00
2018-12-06T11:24:51.593Z,45.00
2018-12-06T11:25:51.597Z,45.00
2018-12-06T11:26:51.566Z,50.62
2018-12-06T11:27:51.556Z,50.62
2018-12-06T11:28:51.544Z,50.62
2018-12-06T11:29:51.553Z,45.00
2018-12-06T11:30:51.552Z,45.00
2018-12-06T11:31:51.509Z,50.62
2018-12-06T11:32:51.516Z,50.62
2018-12-06T11:33:51.493Z,56.25
2018-12-06T11:34:51.475Z,61.88
2018-12-06T11:35:51.480Z,61.88
2018-12-06T11:36:51.459Z,61.88
2018-12-06T11:37:51.446Z,73.12
2018-12-06T11:38:51.437Z,73.12
2018-12-06T11:39:51.423Z,78.75
2018-12-06T11:40:51.444Z,90.00
2018-12-06T11:41:51.411Z,95.62
2018-12-06T11:42:51.393Z,95.62
2018-12-06T11:43:51.387Z,112.50
2018-12-06T11:44:51.381Z,106.88
2018-12-06T11:45:51.379Z,112.50
2018-12-06T11:46:51.345Z,106.88
2018-12-06T11:47:51.335Z,101.25
2018-12-06T11:48:51.334Z,90.00
2018-12-06T11:49:51.321Z,90.00
2018-12-06T11:50:51.321Z,78.75
2018-12-06T11:51:51.301Z,73.12
2018-12-06T11:52:51.282Z,67.50
2018-12-06T11:53:51.265Z,67.50
2018-12-06T11:54:51.259Z,67.50
2018-12-06T11:55:51.279Z,73.12
2018-12-06T11:56:51.259Z,78.75
2018-12-06T11:57:51.225Z,73.12
2018-12-06T11:58:51.216Z,67.50
2018-12-06T11:59:51.203Z,78.75
2018-12-06T12:00:51.203Z,78.75
2018-12-06T12:01:51.197Z,78.75
2018-12-06T12:02:51.173Z,67.50
2018-12-06T12:03:51.183Z,67.50
2018-12-06T12:04:51.148Z,78.75
2018-12-06T12:05:58.302Z,78.75
2018-12-06T12:06:52.118Z,84.38
2018-12-06T12:07:51.108Z,84.38
2018-12-06T12:08:51.102Z,78.75
2018-12-06T12:09:51.112Z,78.75
2018-12-06T12:10:51.102Z,84.38
2018-12-06T12:11:51.085Z,84.38
2018-12-06T12:12:51.055Z,73.12
2018-12-06T12:13:51.039Z,67.50
2018-12-06T12:14:51.078Z,73.12
2018-12-06T12:15:51.044Z,78.75
2018-12-06T12:16:51.007Z,73.12
2018-12-06T12:17:50.998Z,73.12
2018-12-06T12:18:50.990Z,73.12
2018-12-06T12:19:50.977Z,67.50
2018-12-06T12:20:50.981Z,73.12
2018-12-06T12:21:50.950Z,73.12
2018-12-06T12:22:50.943Z,67.50
2018-12-06T12:23:50.961Z,67.50
2018-12-06T12:24:50.924Z,73.12
2018-12-06T12:25:50.936Z,73.12
2018-12-06T12:26:50.895Z,73.12
2018-12-06T12:27:50.885Z,78.75
2018-12-06T12:28:50.877Z,84.38
2018-12-06T12:29:50.862Z,84.38
2018-12-06T12:30:50.891Z,84.38
2018-12-06T12:31:50.835Z,90.00
2018-12-06T12:32:50.842Z,95.62
2018-12-06T12:33:50.822Z,90.00
2018-12-06T12:34:50.819Z,90.00
2018-12-06T12:35:50.834Z,90.00
2018-12-06T12:36:50.791Z,90.00
2018-12-06T12:37:50.769Z,95.62
2018-12-06T12:38:50.768Z,90.00
2018-12-06T12:39:50.757Z,90.00
2018-12-06T12:40:50.741Z,90.00
2018-12-06T12:41:50.750Z,90.00
2018-12-06T12:42:50.723Z,90.00
2018-12-06T12:43:50.709Z,84.38
2018-12-06T12:44:50.705Z,90.00
2018-12-06T12:45:50.691Z,84.38
2018-12-06T12:46:50.742Z,84.38
2018-12-06T12:47:50.661Z,84.38
2018-12-06T12:48:50.653Z,90.00
2018-12-06T12:49:50.640Z,90.00
2018-12-06T12:50:50.633Z,90.00
2018-12-06T12:51:50.644Z,84.38
2018-12-06T12:52:50.605Z,90.00
2018-12-06T12:53:50.602Z,90.00
2018-12-06T12:54:50.583Z,90.00
2018-12-06T12:55:50.572Z,90.00
2018-12-06T12:56:50.587Z,90.00
2018-12-06T12:57:50.559Z,90.00
2018-12-06T12:58:50.542Z,90.00
2018-12-06T12:59:50.533Z,84.38
2018-12-06T13:00:50.518Z,84.38
2018-12-06T13:01:50.533Z,84.38
2018-12-06T13:02:50.493Z,84.38
2018-12-06T13:03:50.488Z,78.75
2018-12-06T13:04:50.476Z,78.75
2018-12-06T13:05:50.459Z,78.75
2018-12-06T13:06:50.460Z,73.12
2018-12-06T13:07:50.433Z,73.12
2018-12-06T13:08:50.456Z,78.75
2018-12-06T13:09:51.996Z,73.12
2018-12-06T13:10:50.707Z,67.50
2018-12-06T13:11:51.376Z,67.50
2018-12-06T13:12:51.965Z,61.88
2018-12-06T13:13:50.369Z,56.25
2018-12-06T13:14:50.359Z,56.25
2018-12-06T13:15:50.346Z,61.88
2018-12-06T13:16:50.356Z,56.25
2018-12-06T13:17:50.325Z,61.88
2018-12-06T13:18:50.313Z,61.88
2018-12-06T13:19:50.303Z,61.88
2018-12-06T13:20:50.295Z,67.50
2018-12-06T13:21:50.328Z,73.12
2018-12-06T13:22:50.270Z,73.12
2018-12-06T13:23:50.258Z,73.12
2018-12-06T13:24:50.253Z,73.12
2018-12-06T13:25:50.238Z,73.12
2018-12-06T13:26:50.318Z,73.12
2018-12-06T13:27:50.216Z,67.50
2018-12-06T13:28:50.200Z,67.50
2018-12-06T13:29:50.189Z,61.88
2018-12-06T13:30:50.179Z,61.88
2018-12-06T13:31:50.177Z,61.88
2018-12-06T13:32:50.155Z,56.25
2018-12-06T13:33:50.144Z,61.88
2018-12-06T13:34:50.191Z,56.25
2018-12-06T13:35:50.123Z,56.25
2018-12-06T13:36:50.129Z,50.62
2018-12-06T13:37:50.100Z,50.62
2018-12-06T13:38:50.087Z,50.62
2018-12-06T13:39:50.080Z,45.00
2018-12-06T13:40:50.100Z,45.00
2018-12-06T13:41:50.069Z,39.38
2018-12-06T13:42:50.041Z,45.00
2018-12-06T13:43:50.030Z,39.38
2018-12-06T13:44:50.020Z,39.38
2018-12-06T13:45:50.007Z,39.38
2018-12-06T13:46:50.015Z,33.75
2018-12-06T13:47:49.984Z,39.38
2018-12-06T13:48:49.974Z,39.38
2018-12-06T13:49:49.958Z,45.00
2018-12-06T13:50:49.952Z,45.00
2018-12-06T13:51:49.955Z,39.38
2018-12-06T13:52:49.928Z,39.38
2018-12-06T13:53:49.924Z,45.00
2018-12-06T13:54:49.906Z,45.00
2018-12-06T13:55:49.898Z,39.38
2018-12-06T13:56:53.760Z,39.38
2018-12-06T13:57:49.878Z,39.38
2018-12-06T13:58:49.864Z,39.38
2018-12-06T13:59:50.344Z,39.38
2018-12-06T14:00:50.150Z,39.38
2018-12-06T14:01:49.845Z,33.75
2018-12-06T14:02:49.853Z,33.75
2018-12-06T14:03:49.872Z,33.75
2018-12-06T14:04:49.801Z,33.75
2018-12-06T14:05:49.785Z,33.75
2018-12-06T14:06:49.790Z,33.75
2018-12-06T14:07:49.764Z,28.12
2018-12-06T14:08:49.751Z,28.12
2018-12-06T14:09:49.732Z,28.12
2018-12-06T14:10:49.732Z,28.12
2018-12-06T14:11:49.733Z,28.12
2018-12-06T14:12:49.706Z,28.12
2018-12-06T14:13:49.702Z,22.50
2018-12-06T14:14:50.134Z,22.50
2018-12-06T14:15:49.672Z,22.50
2018-12-06T14:16:49.682Z,22.50
2018-12-06T14:17:51.624Z,16.88
2018-12-06T14:18:50.667Z,16.88
2018-12-06T14:19:49.692Z,16.88
2018-12-06T14:20:49.648Z,16.88
2018-12-06T14:21:49.621Z,22.50
2018-12-06T14:22:49.593Z,22.50
2018-12-06T14:23:49.582Z,22.50
2018-12-06T14:24:49.572Z,22.50
2018-12-06T14:25:49.561Z,22.50
2018-12-06T14:26:49.566Z,22.50
2018-12-06T14:27:49.541Z,16.88
2018-12-06T14:28:49.527Z,16.88
2018-12-06T14:29:49.514Z,16.88
2018-12-06T14:30:49.516Z,16.88
2018-12-06T14:31:49.507Z,16.88
2018-12-06T14:32:49.482Z,16.88
2018-12-06T14:33:49.472Z,16.88
2018-12-06T14:34:49.458Z,11.25
2018-12-06T14:35:49.456Z,11.25
2018-12-06T14:37:01.740Z,11.25
2018-12-06T14:37:50.431Z,11.25
2018-12-06T14:38:49.413Z,11.25
2018-12-06T14:39:49.403Z,11.25
2018-12-06T14:40:49.394Z,5.62
2018-12-06T14:41:49.423Z,5.62
2018-12-06T14:42:49.371Z,5.62
2018-12-06T14:43:49.365Z,0.00
2018-12-06T14:44:49.350Z,0.00
2018-12-06T14:45:49.340Z,0.00
2018-12-06T14:46:49.326Z,0.00
2018-12-06T14:47:49.331Z,0.00
2018-12-06T14:48:49.310Z,0.00
2018-12-06T14:49:49.296Z,0.00
2018-12-06T14:50:50.820Z,0.00
2018-12-06T14:51:49.272Z,0.00
2018-12-06T14:52:49.271Z,0.00
2018-12-06T14:53:49.247Z,0.00
2018-12-06T14:54:49.236Z,0.00
2018-12-06T14:55:49.235Z,0.00
2018-12-06T14:56:49.213Z,0.00
2018-12-06T14:57:49.216Z,0.00
2018-12-06T14:58:49.191Z,0.00
2018-12-06T14:59:49.180Z,0.00
2018-12-06T15:00:49.172Z,0.00
2018-12-06T15:01:49.160Z,0.00
2018-12-06T15:02:49.161Z,0.00
2018-12-06T15:03:49.130Z,0.00
2018-12-06T15:04:49.124Z,0.00
2018-12-06T15:05:49.116Z,0.00
2018-12-06T15:06:49.104Z,0.00
2018-12-06T15:07:49.110Z,0.00
2018-12-06T15:08:49.078Z,0.00
2018-12-06T15:09:49.075Z,0.00
2018-12-06T15:10:49.058Z,0.00
2018-12-06T15:11:49.033Z,0.00
2018-12-06T15:12:49.050Z,0.00
2018-12-06T15:13:49.024Z,0.00
2018-12-06T15:14:49.012Z,0.00
2018-12-06T15:15:49.000Z,0.00
2018-12-06T15:16:48.990Z,0.00
2018-12-06T15:17:48.994Z,0.00
2018-12-06T15:18:48.970Z,0.00
2018-12-06T15:19:48.954Z,0.00
2018-12-06T15:20:48.942Z,0.00
2018-12-06T15:21:48.931Z,0.00
2018-12-06T15:22:48.946Z,0.00
2018-12-06T15:23:48.909Z,0.00
2018-12-06T15:24:48.902Z,0.00
2018-12-06T15:25:48.897Z,0.00
2018-12-06T15:26:48.877Z,0.00
2018-12-06T15:27:48.880Z,0.00
2018-12-06T15:28:48.858Z,0.00
2018-12-06T15:29:48.844Z,0.00
2018-12-06T15:30:48.820Z,0.00
2018-12-06T15:31:49.462Z,0.00
2018-12-06T15:32:48.838Z,0.00
2018-12-06T15:33:48.800Z,0.00
2018-12-06T15:34:48.794Z,0.00
2018-12-06T15:35:48.778Z,0.00
2018-12-06T15:36:48.771Z,0.00
2018-12-06T15:37:48.768Z,0.00
2018-12-06T15:38:48.745Z,0.00
2018-12-06T15:39:48.749Z,0.00
2018-12-06T15:40:48.723Z,0.00
2018-12-06T15:41:48.740Z,0.00
2018-12-06T15:42:48.716Z,0.00
2018-12-06T15:43:48.688Z,0.00
2018-12-06T15:44:49.033Z,0.00
2018-12-06T15:45:50.445Z,0.00
2018-12-06T15:46:48.656Z,0.00
2018-12-06T15:47:48.658Z,0.00
2018-12-06T15:48:48.632Z,0.00
2018-12-06T15:49:48.620Z,0.00
2018-12-06T15:50:48.613Z,0.00
2018-12-06T15:51:48.596Z,0.00
2018-12-06T15:52:48.599Z,0.00
2018-12-06T15:53:48.576Z,0.00
2018-12-06T15:54:49.283Z,0.00
2018-12-06T15:55:48.539Z,0.00
2018-12-06T15:56:48.541Z,0.00
2018-12-06T15:57:50.619Z,0.00
2018-12-06T15:58:49.050Z,0.00
2018-12-06T15:59:48.506Z,0.00
2018-12-06T16:00:48.495Z,0.00
2018-12-06T16:01:48.483Z,0.00
2018-12-06T16:02:48.489Z,0.00
2018-12-06T16:03:48.462Z,0.00
2018-12-06T16:04:48.453Z,0.00
2018-12-06T16:05:48.440Z,0.00
2018-12-06T16:06:48.428Z,0.00
2018-12-06T16:07:48.433Z,0.00
2018-12-06T16:08:48.404Z,0.00
2018-12-06T16:09:48.393Z,0.00
2018-12-06T16:10:48.387Z,0.00
2018-12-06T16:11:48.373Z,0.00
2018-12-06T16:12:48.375Z,0.00
2018-12-06T16:13:48.352Z,0.00
2018-12-06T16:14:48.346Z,0.00
2018-12-06T16:15:48.330Z,0.00
2018-12-06T16:16:48.318Z,0.00
2018-12-06T16:17:48.318Z,0.00
2018-12-06T16:18:48.295Z,0.00
2018-12-06T16:19:48.284Z,0.00
2018-12-06T16:20:48.272Z,0.00
2018-12-06T16:21:48.261Z,0.00
2018-12-06T16:22:48.264Z,0.00
2018-12-06T16:23:48.238Z,0.00
2018-12-06T16:24:48.230Z,0.00
2018-12-06T16:25:48.215Z,0.00
2018-12-06T16:26:48.205Z,0.00
2018-12-06T16:27:48.211Z,0.00
2018-12-06T16:28:48.183Z,0.00
2018-12-06T16:29:51.497Z,0.00
2018-12-06T16:30:48.159Z,0.00
2018-12-06T16:31:48.152Z,0.00
2018-12-06T16:32:48.159Z,0.00
2018-12-06T16:33:48.127Z,0.00
2018-12-06T16:34:48.115Z,0.00
2018-12-06T16:35:48.183Z,0.00
2018-12-06T16:36:48.094Z,0.00
2018-12-06T16:37:48.093Z,0.00
2018-12-06T16:38:48.071Z,0.00
2018-12-06T16:39:48.058Z,0.00
2018-12-06T16:40:48.563Z,0.00
2018-12-06T16:41:48.037Z,0.00
2018-12-06T16:42:48.033Z,0.00
2018-12-06T16:43:48.033Z,0.00
2018-12-06T16:44:49.662Z,0.00
2018-12-06T16:45:49.402Z,0.00
2018-12-06T16:46:48.678Z,0.00
2018-12-06T16:47:48.033Z,0.00
2018-12-06T16:48:47.959Z,0.00
2018-12-06T16:49:50.010Z,0.00
2018-12-06T16:50:47.938Z,0.00
2018-12-06T16:51:49.814Z,0.00
2018-12-06T16:52:48.561Z,0.00
2018-12-06T16:53:48.271Z,0.00
2018-12-06T16:54:47.888Z,0.00
2018-12-06T16:55:51.887Z,0.00
2018-12-06T16:56:47.867Z,0.00
2018-12-06T16:57:47.855Z,0.00
2018-12-06T16:58:47.859Z,0.00
2018-12-06T16:59:47.831Z,0.00
2018-12-06T17:00:47.826Z,0.00
2018-12-06T17:01:47.809Z,0.00
2018-12-06T17:02:47.798Z,0.00
2018-12-06T17:03:49.682Z,0.00
2018-12-06T17:04:49.778Z,0.00
2018-12-06T17:05:49.820Z,0.00
2018-12-06T17:06:47.761Z,0.00
2018-12-06T17:07:47.748Z,0.00
2018-12-06T17:08:47.748Z,0.00
2018-12-06T17:09:51.387Z,0.00
2018-12-06T17:10:47.714Z,0.00
2018-12-06T17:11:47.701Z,0.00
2018-12-06T17:12:47.720Z,0.00
2018-12-06T17:13:47.693Z,0.00
2018-12-06T17:14:47.668Z,0.00
2018-12-06T17:15:47.655Z,0.00
2018-12-06T17:16:47.646Z,0.00
2018-12-06T17:17:47.641Z,0.00
2018-12-06T17:18:47.634Z,0.00
2018-12-06T17:19:47.612Z,0.00
2018-12-06T17:20:47.599Z,0.00
2018-12-06T17:21:47.588Z,0.00
2018-12-06T17:22:47.577Z,0.00
2018-12-06T17:23:47.587Z,0.00
2018-12-06T17:24:47.554Z,0.00
2018-12-06T17:25:47.864Z,0.00
2018-12-06T17:26:47.533Z,0.00
2018-12-06T17:27:47.520Z,0.00
2018-12-06T17:28:47.528Z,0.00
2018-12-06T17:29:48.313Z,0.00
2018-12-06T17:30:47.487Z,0.00
2018-12-06T17:31:47.475Z,0.00
2018-12-06T17:32:47.464Z,0.00
2018-12-06T17:33:47.464Z,0.00
2018-12-06T17:34:47.441Z,0.00
2018-12-06T17:35:47.546Z,0.00
2018-12-06T17:36:47.420Z,0.00
2018-12-06T17:37:49.772Z,0.00
2018-12-06T17:38:48.520Z,0.00
2018-12-06T17:39:47.388Z,0.00
2018-12-06T17:40:47.719Z,0.00
2018-12-06T17:41:47.370Z,0.00
2018-12-06T17:42:47.352Z,0.00
2018-12-06T17:43:47.395Z,0.00
2018-12-06T17:44:49.822Z,0.00
2018-12-06T17:45:47.330Z,0.00
2018-12-06T17:46:47.442Z,0.00
2018-12-06T17:47:49.263Z,0.00
2018-12-06T17:48:47.314Z,0.00
2018-12-06T17:49:47.270Z,0.00
2018-12-06T17:50:47.284Z,0.00
2018-12-06T17:51:47.255Z,0.00
2018-12-06T17:52:47.246Z,0.00
2018-12-06T17:53:52.213Z,0.00
2018-12-06T17:54:48.219Z,0.00
2018-12-06T17:55:47.228Z,0.00
2018-12-06T17:56:47.197Z,0.00
2018-12-06T17:57:47.197Z,0.00
2018-12-06T17:58:47.292Z,0.00
2018-12-06T17:59:47.167Z,0.00
2018-12-06T18:00:47.163Z,0.00
2018-12-06T18:01:47.140Z,0.00
2018-12-06T18:02:47.130Z,0.00
2018-12-06T18:03:47.130Z,0.00
2018-12-06T18:04:47.108Z,0.00